Time;durP1;ratioP1;P1;durP2;ratioP2;P2;SDS_P1;SDS_P2;PMS_P1;PMS_P2;Temp;Humidity;BMP_temperature;BMP_pressure;BME280_temperature;BME280_humidity;BME280_pressure;Samples;Min_cycle;Max_cycle;Signal;HPM_P1;HPM_P2
2022/08/18 00:02:05;;;;;;;22.33;13.13;;;;;;;17.51;100.00;101197.91;10419195;28;20061;-80
2022/08/18 00:07:10;;;;;;;19.65;13.20;;;;;;;17.67;100.00;101208.88;10378228;28;20720;-81
2022/08/18 00:12:31;;;;;;;24.90;14.13;;;;;;;17.68;100.00;101211.38;10361850;28;20037;-79
2022/08/18 00:17:32;;;;;;;22.83;14.15;;;;;;;17.70;100.00;101211.09;10375832;28;20092;-80
2022/08/18 00:22:32;;;;;;;26.27;15.45;;;;;;;17.60;100.00;101205.63;10377348;28;20061;-80
2022/08/18 00:27:33;;;;;;;42.30;16.08;;;;;;;17.67;100.00;101218.09;10401070;28;20387;-81
2022/08/18 00:32:39;;;;;;;37.08;16.65;;;;;;;17.52;100.00;101194.00;10403489;28;20072;-81
2022/08/18 00:37:40;;;;;;;34.60;17.30;;;;;;;17.48;100.00;101184.56;10386260;28;20045;-81
2022/08/18 00:42:52;;;;;;;31.70;17.38;;;;;;;17.52;100.00;101199.56;10399983;28;20045;-81
2022/08/18 00:47:52;;;;;;;37.85;16.30;;;;;;;17.49;100.00;101200.16;10375616;28;20042;-80
2022/08/18 00:52:59;;;;;;;37.42;16.20;;;;;;;17.46;100.00;101197.94;10376748;28;20026;-80
2022/08/18 00:58:08;;;;;;;35.53;16.20;;;;;;;17.41;100.00;101203.59;10361530;28;20038;-79
2022/08/18 01:03:12;;;;;;;31.08;16.83;;;;;;;17.06;100.00;101149.09;10341351;28;20046;-80
2022/08/18 01:08:13;;;;;;;35.67;16.92;;;;;;;17.16;100.00;101174.03;10334764;28;20046;-79
2022/08/18 01:13:13;;;;;;;35.28;16.83;;;;;;;17.28;100.00;101204.25;10339514;28;20062;-79
2022/08/18 01:23:33;;;;;;;34.08;15.45;;;;;;;16.68;100.00;101135.72;10335256;28;20545;-80
2022/08/18 01:28:40;;;;;;;34.15;16.25;;;;;;;16.94;100.00;101191.16;10318758;28;20038;-80
2022/08/18 01:33:42;;;;;;;35.53;15.02;;;;;;;16.94;100.00;101193.94;10371631;28;20038;-80
2022/08/18 01:38:43;;;;;;;34.35;16.85;;;;;;;17.10;100.00;101201.06;10390482;28;20593;-81
2022/08/18 01:43:45;;;;;;;32.55;15.35;;;;;;;17.18;100.00;101210.75;10373785;28;20084;-80
2022/08/18 01:48:47;;;;;;;32.83;17.45;;;;;;;17.18;100.00;101209.88;10373738;28;20105;-80
2022/08/18 01:53:47;;;;;;;38.33;17.88;;;;;;;17.03;100.00;101174.69;10376380;28;20030;-79
2022/08/18 01:58:48;;;;;;;35.00;18.50;;;;;;;17.25;100.00;101193.72;10356820;28;20046;-79
2022/08/18 02:03:52;;;;;;;38.20;16.75;;;;;;;17.37;100.00;101201.69;10372753;28;20046;-78
2022/08/18 02:08:52;;;;;;;35.08;17.27;;;;;;;17.22;100.00;101183.16;10339452;28;20442;-78
2022/08/18 02:13:52;;;;;;;34.28;17.48;;;;;;;17.25;100.00;101177.84;10339709;28;20088;-80
2022/08/18 02:18:53;;;;;;;42.42;18.73;;;;;;;17.33;100.00;101207.00;10340864;28;20038;-80
2022/08/18 02:23:53;;;;;;;37.17;18.48;;;;;;;17.43;100.00;101206.91;10357361;28;20037;-79
2022/08/18 02:28:54;;;;;;;36.88;19.60;;;;;;;17.45;100.00;101204.66;10372519;28;20038;-78
2022/08/18 02:33:55;;;;;;;44.22;20.63;;;;;;;17.41;100.00;101200.81;10354998;28;20038;-79
2022/08/18 02:38:56;;;;;;;51.38;21.27;;;;;;;17.46;100.00;101211.88;10370520;28;20102;-79
2022/08/18 02:43:57;;;;;;;41.42;19.00;;;;;;;17.44;100.00;101222.47;10349119;28;20081;-79
2022/08/18 02:49:00;;;;;;;41.00;19.65;;;;;;;17.50;100.00;101217.69;10356769;28;20426;-78
2022/08/18 02:54:01;;;;;;;42.08;18.98;;;;;;;17.49;100.00;101207.69;10355891;28;20061;-78
2022/08/18 02:59:06;;;;;;;39.88;19.40;;;;;;;17.57;100.00;101200.63;10371990;28;20111;-79
2022/08/18 03:04:08;;;;;;;40.95;19.02;;;;;;;17.63;100.00;101207.81;10348295;28;20050;-79
2022/08/18 03:09:08;;;;;;;49.72;21.38;;;;;;;17.58;100.00;101196.75;10329159;28;20168;-79
2022/08/18 03:14:09;;;;;;;45.25;19.92;;;;;;;17.63;100.00;101205.03;10326311;28;20046;-79
2022/08/18 03:19:10;;;;;;;38.80;21.33;;;;;;;17.58;100.00;101191.19;10380047;28;20041;-78
2022/08/18 03:24:11;;;;;;;39.60;21.30;;;;;;;17.60;100.00;101205.63;10396870;28;20054;-78
2022/08/18 03:29:11;;;;;;;40.28;22.50;;;;;;;17.54;100.00;101202.88;10379491;28;20069;-78
2022/08/18 03:34:12;;;;;;;41.25;21.13;;;;;;;17.48;100.00;101198.50;10398089;28;20049;-79
2022/08/18 03:39:13;;;;;;;44.33;21.60;;;;;;;17.53;100.00;101211.56;10400787;28;20049;-77
2022/08/18 03:44:13;;;;;;;42.88;20.63;;;;;;;17.52;100.00;101210.69;10402334;28;20060;-78
2022/08/18 03:49:14;;;;;;;39.38;21.85;;;;;;;17.58;100.00;101230.16;10403267;28;20061;-73
2022/08/18 03:54:15;;;;;;;45.38;21.52;;;;;;;17.48;100.00;101203.22;10403944;28;20049;-78
2022/08/18 03:59:18;;;;;;;43.15;20.25;;;;;;;17.62;100.00;101214.53;10403198;28;20528;-78
2022/08/18 04:04:21;;;;;;;38.08;19.90;;;;;;;17.31;100.00;101159.97;10419039;28;20037;-78
2022/08/18 04:09:23;;;;;;;32.60;18.48;;;;;;;17.71;100.00;101223.88;10410591;28;20048;-79
2022/08/18 04:14:25;;;;;;;43.00;18.98;;;;;;;17.37;100.00;101180.25;10401546;28;20034;-79
2022/08/18 04:19:26;;;;;;;38.15;18.10;;;;;;;17.64;100.00;101220.63;10403355;28;20037;-79
2022/08/18 04:24:27;;;;;;;31.98;17.58;;;;;;;17.61;100.00;101224.84;10402206;28;20033;-79
2022/08/18 04:29:28;;;;;;;38.28;17.05;;;;;;;17.65;100.00;101236.19;10385662;28;20409;-80
2022/08/18 04:34:28;;;;;;;38.53;17.40;;;;;;;17.65;100.00;101241.75;10384113;28;20037;-79
2022/08/18 04:39:29;;;;;;;37.20;15.60;;;;;;;17.65;100.00;101242.63;10398835;28;20037;-79
2022/08/18 04:44:30;;;;;;;30.17;15.60;;;;;;;17.70;100.00;101253.69;10416132;28;20037;-79
2022/08/18 04:49:32;;;;;;;29.70;16.45;;;;;;;17.71;100.00;101251.72;10433773;28;20037;-79
2022/08/18 04:54:37;;;;;;;32.42;14.80;;;;;;;17.62;100.00;101240.41;10417250;28;20036;-78
2022/08/18 04:59:39;;;;;;;26.83;15.15;;;;;;;17.64;100.00;101254.03;10400584;28;20044;-79
2022/08/18 05:04:40;;;;;;;28.98;14.02;;;;;;;17.65;100.00;101255.69;10402699;28;20038;-78
2022/08/18 05:09:40;;;;;;;27.20;13.70;;;;;;;17.64;100.00;101252.09;10375073;28;20046;-79
2022/08/18 05:14:43;;;;;;;27.55;13.93;;;;;;;17.71;100.00;101268.44;10374811;28;20042;-79
2022/08/18 05:19:44;;;;;;;30.25;13.23;;;;;;;17.60;100.00;101247.41;10375327;28;20048;-78
2022/08/18 05:24:45;;;;;;;30.35;13.48;;;;;;;17.60;100.00;101251.00;10374513;28;20041;-77
2022/08/18 05:29:45;;;;;;;36.03;14.23;;;;;;;17.62;100.00;101259.06;10358562;28;20040;-78
2022/08/18 05:34:47;;;;;;;28.13;13.20;;;;;;;17.54;100.00;101266.91;10357603;28;20034;-77
2022/08/18 05:39:56;;;;;;;27.13;13.45;;;;;;;17.54;100.00;101261.34;10373674;28;20034;-77
2022/08/18 05:44:57;;;;;;;33.38;15.25;;;;;;;17.49;100.00;101247.50;10386617;28;20030;-77
2022/08/18 05:50:05;;;;;;;26.90;14.30;;;;;;;17.67;100.00;101268.22;10369761;28;20034;-78
2022/08/18 06:00:31;;;;;;;23.35;13.88;;;;;;;18.03;100.00;101275.41;10373056;28;20037;-77
2022/08/18 06:05:36;;;;;;;23.27;13.23;;;;;;;18.11;100.00;101263.63;10301655;28;20058;-76
2022/08/18 06:10:37;;;;;;;24.10;13.20;;;;;;;18.11;100.00;101263.63;10334361;28;20670;-77
2022/08/18 06:15:53;;;;;;;26.98;13.68;;;;;;;18.34;100.00;101275.91;10373401;28;20401;-78
2022/08/18 06:21:04;;;;;;;33.78;13.98;;;;;;;18.35;100.00;101272.81;10349850;28;20518;-77
2022/08/18 06:26:45;;;;;;;23.95;13.38;;;;;;;18.52;100.00;101289.06;10332717;28;20038;-78
2022/08/18 06:32:17;;;;;;;27.92;12.85;;;;;;;18.54;100.00;101288.72;10372405;28;20038;-78
2022/08/18 06:37:34;;;;;;;24.15;13.15;;;;;;;18.65;100.00;101281.91;10373387;28;20069;-78
2022/08/18 06:42:34;;;;;;;33.28;11.90;;;;;;;18.78;100.00;101269.19;10396159;28;20132;-79
2022/08/18 06:47:56;;;;;;;23.35;11.77;;;;;;;18.84;100.00;101256.03;10412422;28;20037;-79
2022/08/18 06:53:02;;;;;;;16.75;9.50;;;;;;;18.90;100.00;101261.22;10397504;28;20029;-79
2022/08/18 06:58:15;;;;;;;24.50;10.10;;;;;;;18.62;100.00;101226.72;10370506;28;20038;-78
2022/08/18 07:03:21;;;;;;;20.75;10.35;;;;;;;18.95;100.00;101274.28;10337996;28;20034;-77
2022/08/18 07:08:35;;;;;;;27.95;10.30;;;;;;;19.12;100.00;101294.13;10335272;28;20049;-78
2022/08/18 07:13:37;;;;;;;19.30;9.43;;;;;;;19.15;100.00;101279.56;10350955;28;20077;-79
2022/08/18 07:18:37;;;;;;;19.83;9.65;;;;;;;19.26;100.00;101287.78;10340970;28;20038;-79
2022/08/18 07:23:38;;;;;;;22.20;8.02;;;;;;;19.31;100.00;101290.50;10355067;28;20042;-79
2022/08/18 07:28:44;;;;;;;15.70;8.45;;;;;;;19.24;100.00;101301.19;10346915;28;20072;-78
2022/08/18 07:33:55;;;;;;;18.13;8.30;;;;;;;19.24;100.00;101298.41;10355019;28;20034;-78
2022/08/18 07:39:09;;;;;;;21.60;8.25;;;;;;;19.29;100.00;101285.22;10391743;28;20497;-79
2022/08/18 07:44:48;;;;;;;17.45;7.57;;;;;;;19.50;100.00;101296.88;10384110;28;20049;-79
2022/08/18 07:49:49;;;;;;;16.25;6.60;;;;;;;19.48;100.00;101290.75;10327712;28;20073;-79
2022/08/18 07:55:06;;;;;;;12.15;6.47;;;;;;;19.50;100.00;101319.22;10349651;28;20092;-79
2022/08/18 08:00:23;;;;;;;19.20;7.70;;;;;;;19.43;100.00;101329.94;10365998;28;20042;-79
2022/08/18 08:05:40;;;;;;;17.98;7.22;;;;;;;19.29;100.00;101335.47;10362040;28;20061;-81
2022/08/18 08:11:02;;;;;;;16.80;7.03;;;;;;;19.27;100.00;101336.91;10377321;28;20110;-78
2022/08/18 08:16:03;;;;;;;13.32;6.40;;;;;;;19.19;100.00;101337.56;10377822;28;20077;-80
2022/08/18 08:21:15;;;;;;;14.07;7.43;;;;;;;19.11;100.00;101328.72;10378540;28;20034;-80
2022/08/18 08:26:18;;;;;;;12.20;5.25;;;;;;;19.23;100.00;101342.25;10402109;28;20053;-80
2022/08/18 08:31:23;;;;;;;17.25;5.63;;;;;;;19.38;100.00;101355.13;10418354;28;20120;-79
2022/08/18 08:36:24;;;;;;;12.00;5.47;;;;;;;19.50;100.00;101349.94;10402756;28;20439;-80
2022/08/18 08:41:59;;;;;;;14.77;7.85;;;;;;;19.55;100.00;101338.69;10417977;28;20041;-79
2022/08/18 08:47:31;;;;;;;12.80;7.80;;;;;;;19.69;100.00;101349.06;10397803;28;20422;-81
2022/08/18 08:53:09;;;;;;;19.48;6.30;;;;;;;19.84;100.00;101340.47;10404319;28;20034;-79
2022/08/18 08:58:25;;;;;;;14.23;5.40;;;;;;;20.11;100.00;101350.06;10418415;28;20057;-80
2022/08/18 09:03:52;;;;;;;12.87;5.33;;;;;;;20.42;100.00;101332.69;10418007;28;20044;-80
2022/08/18 09:09:10;;;;;;;11.88;4.53;;;;;;;20.62;100.00;101337.09;10399267;28;20045;-81
2022/08/18 09:14:49;;;;;;;12.20;3.70;;;;;;;20.51;100.00;101336.44;10405585;28;20044;-81
2022/08/18 09:20:11;;;;;;;8.35;2.53;;;;;;;20.66;100.00;101338.97;10327743;28;20046;-79
2022/08/18 09:25:51;;;;;;;8.05;2.28;;;;;;;20.67;100.00;101345.38;10405201;28;20060;-83
2022/08/18 09:31:00;;;;;;;7.47;2.78;;;;;;;20.91;100.00;101342.34;10414079;28;20071;-84
2022/08/18 09:36:25;;;;;;;6.53;2.50;;;;;;;21.53;100.00;101341.81;10415026;28;20052;-79
2022/08/18 09:41:31;;;;;;;5.45;1.80;;;;;;;22.13;100.00;101329.34;10417591;28;20091;-81
2022/08/18 09:46:46;;;;;;;7.95;2.40;;;;;;;22.39;100.00;101331.47;10383769;28;20509;-81
2022/08/18 09:51:50;;;;;;;4.63;1.75;;;;;;;22.25;100.00;101343.63;10415796;28;20072;-79
2022/08/18 09:56:52;;;;;;;7.85;2.33;;;;;;;22.33;100.00;101345.66;10399057;28;20307;-80
2022/08/18 10:01:53;;;;;;;7.78;2.50;;;;;;;22.29;100.00;101355.84;10417405;28;20413;-77
2022/08/18 10:06:53;;;;;;;8.85;3.35;;;;;;;22.31;100.00;101355.53;10399091;28;20518;-80
2022/08/18 10:12:17;;;;;;;7.60;3.20;;;;;;;22.10;100.00;101369.25;10398910;28;20055;-80
2022/08/18 10:17:39;;;;;;;7.95;2.92;;;;;;;22.27;100.00;101358.16;10398398;28;20026;-81
2022/08/18 10:22:46;;;;;;;8.05;2.53;;;;;;;22.21;100.00;101356.59;10412449;28;21612;-77
2022/08/18 10:27:55;;;;;;;9.82;2.85;;;;;;;22.33;100.00;101356.88;10415177;28;20026;-76
2022/08/18 10:32:56;;;;;;;5.75;2.17;;;;;;;22.11;100.00;101348.47;10398299;28;20041;-81
2022/08/18 10:37:57;;;;;;;8.45;2.15;;;;;;;22.03;100.00;101357.66;10381123;28;20037;-81
2022/08/18 10:43:06;;;;;;;6.97;2.42;;;;;;;21.90;100.00;101360.22;10413668;28;20067;-78
2022/08/18 10:48:33;;;;;;;6.20;1.90;;;;;;;21.84;100.00;101353.09;10397214;28;20072;-78
2022/08/18 10:53:54;;;;;;;6.68;1.60;;;;;;;21.98;100.00;101366.22;10399335;28;20038;-79
2022/08/18 10:59:03;;;;;;;4.50;1.33;;;;;;;22.09;100.00;101373.19;10399567;28;20046;-78
2022/08/18 11:04:07;;;;;;;7.07;1.80;;;;;;;21.90;100.00;101306.13;10381355;28;20061;-78
2022/08/18 11:09:07;;;;;;;7.28;1.73;;;;;;;22.57;100.00;101380.91;10410807;28;20108;-80
2022/08/18 11:14:25;;;;;;;3.55;1.42;;;;;;;22.53;100.00;101382.69;10395599;28;20069;-78
2022/08/18 11:19:25;;;;;;;5.68;1.90;;;;;;;22.49;100.00;101387.28;10411368;28;20064;-77
2022/08/18 11:24:27;;;;;;;5.25;1.73;;;;;;;22.26;100.00;101375.31;10379033;28;20059;-78
2022/08/18 11:29:35;;;;;;;3.70;1.55;;;;;;;22.47;100.00;101384.84;10395642;28;20041;-79
2022/08/18 11:34:40;;;;;;;5.85;1.92;;;;;;;22.62;100.00;101379.94;10416374;28;20059;-77
2022/08/18 11:39:42;;;;;;;4.55;1.88;;;;;;;22.70;100.00;101365.94;10420483;28;20048;-79
2022/08/18 11:44:42;;;;;;;4.80;1.08;;;;;;;22.76;100.00;101358.22;10359373;28;20042;-78
2022/08/18 11:50:07;;;;;;;4.70;1.50;;;;;;;22.83;100.00;101371.75;10376898;28;20038;-79
2022/08/18 11:55:08;;;;;;;4.63;1.85;;;;;;;22.67;100.00;101355.34;10412011;28;20048;-70
2022/08/18 12:00:36;;;;;;;3.08;1.33;;;;;;;22.34;100.00;101369.72;10403137;28;20060;-82
2022/08/18 12:05:42;;;;;;;4.00;1.30;;;;;;;22.39;100.00;101376.34;10435924;28;20079;-77
2022/08/18 12:10:42;;;;;;;3.72;1.50;;;;;;;22.12;100.00;101331.34;10404053;28;20041;-77
2022/08/18 12:15:43;;;;;;;6.78;1.92;;;;;;;22.64;100.00;101383.25;10374679;28;20038;-76
2022/08/18 12:20:43;;;;;;;4.90;1.30;;;;;;;22.77;100.00;101379.50;10405820;28;20053;-77
2022/08/18 12:25:43;;;;;;;6.53;2.38;;;;;;;22.73;100.00;101381.28;10385665;28;20045;-78
2022/08/18 12:30:44;;;;;;;7.78;1.75;;;;;;;22.69;100.00;101380.28;10401788;28;20110;-77
2022/08/18 12:35:45;;;;;;;3.20;1.50;;;;;;;22.75;100.00;101362.97;10401962;28;20029;-79
2022/08/18 12:40:45;;;;;;;2.28;1.10;;;;;;;23.00;100.00;101357.75;10369503;28;20041;-77
2022/08/18 12:45:46;;;;;;;3.03;1.10;;;;;;;23.30;100.00;101358.00;10364228;28;20030;-79
2022/08/18 12:50:47;;;;;;;4.40;1.77;;;;;;;23.46;100.00;101300.16;10389484;28;20088;-77
2022/08/18 12:55:47;;;;;;;2.78;1.40;;;;;;;24.88;100.00;101317.91;10417871;28;20041;-79
2022/08/18 13:00:47;;;;;;;2.55;1.58;;;;;;;25.42;100.00;101297.47;10384272;28;20037;-78
2022/08/18 13:05:48;;;;;;;3.45;1.38;;;;;;;26.94;99.91;101276.09;10401426;28;20025;-79
2022/08/18 13:10:49;;;;;;;2.67;1.55;;;;;;;27.25;94.53;101275.44;10401543;28;20041;-77
2022/08/18 13:15:49;;;;;;;2.38;1.55;;;;;;;27.42;93.15;101294.09;10392025;28;20053;-77
2022/08/18 13:20:50;;;;;;;5.18;1.90;;;;;;;28.09;89.22;101285.03;10398587;28;20040;-79
2022/08/18 13:25:50;;;;;;;5.05;1.75;;;;;;;28.30;87.42;101262.13;10400208;28;20025;-84
2022/08/18 13:30:52;;;;;;;6.35;1.55;;;;;;;27.96;88.17;101265.31;10394488;28;20038;-75
2022/08/18 13:35:52;;;;;;;4.32;1.38;;;;;;;28.61;86.40;101266.97;10416478;28;20029;-77
2022/08/18 13:40:53;;;;;;;4.55;2.22;;;;;;;29.06;82.24;101282.53;10385583;28;20061;-76
2022/08/18 13:45:54;;;;;;;7.78;1.77;;;;;;;28.54;83.26;101286.63;10370418;28;20045;-77
2022/08/18 13:50:55;;;;;;;7.03;1.45;;;;;;;28.54;82.11;101278.13;10399862;28;20042;-76
2022/08/18 13:55:58;;;;;;;3.25;2.00;;;;;;;28.51;79.77;101278.88;10358284;28;20112;-76
2022/08/18 14:01:01;;;;;;;3.33;1.95;;;;;;;27.71;87.12;101304.22;10398219;28;20029;-76
2022/08/18 14:06:02;;;;;;;3.63;1.45;;;;;;;28.22;83.57;101305.63;10383139;28;20073;-77
2022/08/18 14:11:02;;;;;;;3.35;1.50;;;;;;;27.62;84.13;101314.03;10374337;28;20073;-77
2022/08/18 14:16:03;;;;;;;5.63;1.63;;;;;;;27.11;84.94;101326.66;10319886;28;20062;-76
2022/08/18 14:31:42;;;;;;;3.60;1.63;;;;;;;28.31;78.11;101290.06;10347184;28;20038;-75
2022/08/18 14:36:42;;;;;;;2.75;2.08;;;;;;;28.03;77.56;101326.13;10336179;28;20077;-77
2022/08/18 14:41:43;;;;;;;5.97;2.10;;;;;;;26.83;84.33;101325.78;10331215;28;20034;-77
2022/08/18 14:46:46;;;;;;;7.63;2.78;;;;;;;27.30;86.34;101339.38;10299756;28;20065;-77
2022/08/18 14:51:47;;;;;;;4.40;1.40;;;;;;;27.24;81.13;101321.03;10332113;28;20046;-76
2022/08/18 14:56:49;;;;;;;2.35;1.25;;;;;;;26.77;82.17;101323.19;10371016;28;20118;-77
2022/08/18 15:01:49;;;;;;;6.25;1.48;;;;;;;25.81;85.01;101328.31;10331793;28;20042;-75
2022/08/18 15:06:50;;;;;;;2.30;1.38;;;;;;;26.48;87.80;101332.72;10316215;28;20042;-77
2022/08/18 15:11:50;;;;;;;5.15;1.63;;;;;;;27.76;80.81;101325.75;10324246;28;20089;-77
2022/08/18 15:16:51;;;;;;;2.78;1.50;;;;;;;27.68;80.19;101321.09;10340118;28;20038;-77
2022/08/18 15:27:10;;;;;;;2.92;1.55;;;;;;;26.32;85.21;101315.63;10342470;28;20049;-76
2022/08/18 15:32:14;;;;;;;3.97;2.17;;;;;;;26.67;82.51;101297.44;10340550;28;20038;-77
2022/08/18 15:37:15;;;;;;;2.88;1.52;;;;;;;27.40;80.37;101287.16;10356962;28;20097;-76
2022/08/18 15:42:16;;;;;;;3.60;1.20;;;;;;;27.50;80.04;101321.41;10356772;28;20089;-76
2022/08/18 15:47:16;;;;;;;2.08;1.27;;;;;;;26.93;79.88;101325.28;10322659;28;20110;-76
2022/08/18 15:52:17;;;;;;;1.77;1.13;;;;;;;26.84;80.24;101316.13;10340212;28;20418;-77
2022/08/18 15:57:17;;;;;;;3.60;1.50;;;;;;;26.91;80.57;101296.56;10322371;28;20035;-76
2022/08/18 16:02:18;;;;;;;4.93;1.50;;;;;;;26.20;81.94;101297.88;10347117;28;20038;-77
2022/08/18 16:07:19;;;;;;;2.67;1.58;;;;;;;24.92;88.17;101279.44;10380459;28;20040;-77
2022/08/18 16:12:19;;;;;;;2.17;1.55;;;;;;;24.21;94.54;101294.22;10346455;28;20045;-77
2022/08/18 16:17:20;;;;;;;4.18;1.80;;;;;;;23.63;99.22;101304.13;10362064;28;20030;-76
2022/08/18 16:22:22;;;;;;;6.03;2.15;;;;;;;23.01;100.00;101311.72;10376917;28;20037;-77
2022/08/18 16:27:22;;;;;;;2.35;1.33;;;;;;;22.50;100.00;101290.75;10377728;28;20103;-78
2022/08/18 16:32:23;;;;;;;2.65;1.48;;;;;;;22.34;100.00;101302.41;10346035;28;20049;-76
2022/08/18 16:37:25;;;;;;;4.38;2.20;;;;;;;21.82;100.00;101240.47;10333615;28;20049;-77
2022/08/18 16:42:28;;;;;;;3.45;1.50;;;;;;;22.07;100.00;101274.56;10358289;28;20045;-77
2022/08/18 16:47:31;;;;;;;3.00;1.52;;;;;;;22.04;100.00;101289.22;10378874;28;20041;-77
2022/08/18 16:52:32;;;;;;;2.38;1.35;;;;;;;21.75;100.00;101279.34;10320291;28;20038;-79
2022/08/18 17:08:12;;;;;;;3.15;1.60;;;;;;;21.17;100.00;101278.22;10430434;28;20034;-77
2022/08/18 17:13:13;;;;;;;3.10;1.30;;;;;;;21.09;100.00;101274.22;10416834;28;20044;-77
2022/08/18 17:18:13;;;;;;;3.15;1.38;;;;;;;20.92;100.00;101282.47;10416685;28;20025;-78
2022/08/18 17:23:14;;;;;;;2.72;1.70;;;;;;;20.74;100.00;101273.88;10400568;28;20050;-77
2022/08/18 17:28:14;;;;;;;3.53;1.42;;;;;;;20.66;100.00;101283.00;10417274;28;20045;-78
2022/08/18 17:33:18;;;;;;;3.28;1.73;;;;;;;20.32;100.00;101239.50;10400292;28;20076;-79
2022/08/18 17:38:25;;;;;;;2.85;1.20;;;;;;;20.50;100.00;101290.03;10336740;28;20044;-77
2022/08/18 17:43:30;;;;;;;5.40;1.50;;;;;;;20.26;100.00;101285.47;10395580;28;20045;-79
2022/08/18 17:48:35;;;;;;;3.85;2.22;;;;;;;20.13;100.00;101286.28;10374370;28;20086;-77
2022/08/18 17:53:35;;;;;;;3.20;1.33;;;;;;;20.11;100.00;101308.13;10386501;28;20042;-78
2022/08/18 17:58:53;;;;;;;1.88;1.25;;;;;;;20.05;100.00;101326.13;10356264;28;20034;-78
2022/08/18 18:03:53;;;;;;;5.40;1.38;;;;;;;19.86;100.00;101318.63;10348675;28;20062;-79
2022/08/18 18:08:59;;;;;;;3.60;1.20;;;;;;;19.72;100.00;101320.56;10341994;28;20100;-77
2022/08/18 18:14:08;;;;;;;3.22;1.30;;;;;;;19.72;100.00;101348.47;10370166;28;20037;-77
2022/08/18 18:19:11;;;;;;;4.05;1.70;;;;;;;19.51;100.00;101332.06;10348955;28;20104;-77
2022/08/18 18:24:13;;;;;;;4.45;1.63;;;;;;;19.47;100.00;101342.16;10331176;28;20046;-77
2022/08/18 18:29:31;;;;;;;1.70;1.50;;;;;;;19.20;100.00;101328.06;10360169;28;20043;-78
2022/08/18 18:34:32;;;;;;;4.03;2.35;;;;;;;19.15;100.00;101340.94;10370751;28;20045;-77
2022/08/18 18:39:36;;;;;;;3.67;1.27;;;;;;;18.98;100.00;101346.22;10330896;28;20053;-77
2022/08/18 18:44:37;;;;;;;1.60;1.42;;;;;;;18.74;100.00;101324.72;10397730;28;20097;-78
2022/08/18 18:49:56;;;;;;;2.10;1.48;;;;;;;18.78;100.00;101335.31;10410800;28;20030;-77
2022/08/18 18:55:04;;;;;;;4.88;1.70;;;;;;;18.70;100.00;101334.00;10352912;28;20460;-79
2022/08/18 19:00:22;;;;;;;3.40;1.42;;;;;;;18.14;100.00;101254.66;10385820;28;20034;-80
2022/08/18 19:05:49;;;;;;;3.45;1.70;;;;;;;18.53;100.00;101340.06;10359785;28;20037;-79
2022/08/18 19:10:58;;;;;;;5.68;1.98;;;;;;;18.43;100.00;101334.59;10366678;28;20042;-77
2022/08/18 19:16:08;;;;;;;8.25;2.17;;;;;;;18.19;100.00;101340.16;10381751;28;20040;-78
2022/08/18 19:21:22;;;;;;;6.18;2.30;;;;;;;18.09;100.00;101327.19;10364211;28;20052;-78
2022/08/18 19:26:27;;;;;;;6.70;2.05;;;;;;;17.77;100.00;101278.41;10378443;28;20038;-78
2022/08/18 19:31:48;;;;;;;3.97;1.90;;;;;;;17.82;100.00;101309.00;10362859;28;20034;-79
2022/08/18 19:37:12;;;;;;;3.35;1.90;;;;;;;17.85;100.00;101335.47;10376485;28;20037;-78
2022/08/18 19:42:33;;;;;;;3.47;2.15;;;;;;;17.81;100.00;101340.75;10386034;28;20054;-78
2022/08/18 19:47:40;;;;;;;5.38;2.85;;;;;;;17.63;100.00;101316.41;10358319;28;20048;-78
2022/08/18 19:52:53;;;;;;;3.00;2.00;;;;;;;17.64;100.00;101329.22;10359385;28;20038;-77
2022/08/18 19:58:05;;;;;;;6.07;2.72;;;;;;;17.50;100.00;101329.84;10393581;28;20051;-77
2022/08/18 20:03:23;;;;;;;5.68;2.30;;;;;;;17.36;100.00;101312.16;10393135;28;20276;-78
2022/08/18 20:08:39;;;;;;;5.00;1.80;;;;;;;17.37;100.00;101322.19;10378246;28;20038;-78
2022/08/18 20:13:40;;;;;;;5.43;2.50;;;;;;;17.32;100.00;101327.75;10420289;28;20044;-78
2022/08/18 20:18:48;;;;;;;6.60;2.88;;;;;;;17.26;100.00;101328.91;10335594;28;20057;-77
2022/08/18 20:24:04;;;;;;;5.65;2.45;;;;;;;17.14;100.00;101320.94;10358217;28;20058;-75
2022/08/18 20:29:13;;;;;;;6.05;2.97;;;;;;;17.17;100.00;101319.53;10405488;28;20025;-82
2022/08/18 20:34:21;;;;;;;5.50;2.67;;;;;;;17.19;100.00;101323.69;10389686;28;20042;-83
2022/08/18 20:39:41;;;;;;;5.85;2.80;;;;;;;17.18;100.00;101329.53;10376881;28;20076;-79
2022/08/18 20:44:48;;;;;;;3.78;2.88;;;;;;;17.06;100.00;101322.38;10401865;28;20046;-80
2022/08/18 20:49:49;;;;;;;;;;;;;;;16.98;100.00;101316.59;10405277;28;20030;-79
2022/08/18 20:55:18;;;;;;;4.38;2.92;;;;;;;16.78;100.00;101320.25;10391815;28;19928;-79
2022/08/18 21:00:20;;;;;;;4.88;2.83;;;;;;;16.71;100.00;101343.66;10365341;28;20037;-79
2022/08/18 21:05:26;;;;;;;7.20;3.13;;;;;;;16.51;100.00;101318.72;10401109;28;20034;-79
2022/08/18 21:10:30;;;;;;;6.18;3.38;;;;;;;16.48;100.00;101333.19;10379358;28;20046;-79
2022/08/18 21:15:35;;;;;;;7.70;3.60;;;;;;;16.34;100.00;101330.97;10328998;28;20066;-79
2022/08/18 21:20:35;;;;;;;5.95;3.42;;;;;;;16.32;100.00;101338.75;10375939;28;20504;-79
2022/08/18 21:25:39;;;;;;;5.90;3.50;;;;;;;16.01;100.00;101304.66;10384275;28;20044;-80
2022/08/18 21:30:56;;;;;;;8.77;3.60;;;;;;;16.15;100.00;101349.38;10364049;28;20038;-79
2022/08/18 21:35:57;;;;;;;6.22;3.88;;;;;;;15.91;100.00;101327.72;10347457;28;20042;-79
2022/08/18 21:40:58;;;;;;;5.50;4.10;;;;;;;15.92;100.00;101348.03;10316559;28;20043;-78
2022/08/18 21:45:59;;;;;;;9.10;4.43;;;;;;;15.85;100.00;101353.00;10351014;28;20042;-79
2022/08/18 21:51:00;;;;;;;6.35;4.30;;;;;;;15.71;100.00;101352.72;10355218;28;20151;-79
2022/08/18 21:56:01;;;;;;;6.18;4.53;;;;;;;15.73;100.00;101365.22;10338397;28;20449;-79
2022/08/18 22:01:23;;;;;;;6.15;4.47;;;;;;;15.68;100.00;101369.91;10338157;28;20030;-80
2022/08/18 22:06:33;;;;;;;4.72;4.25;;;;;;;15.62;100.00;101368.25;10355951;28;20109;-79
2022/08/18 22:17:32;;;;;;;5.97;4.40;;;;;;;15.56;100.00;101377.66;10378343;28;20037;-81
2022/08/18 22:27:52;;;;;;;7.03;4.88;;;;;;;15.34;100.00;101356.56;10398291;28;20049;-79
2022/08/18 22:32:52;;;;;;;6.28;4.65;;;;;;;15.09;100.00;101327.66;10358896;28;20057;-80
2022/08/18 22:37:53;;;;;;;6.28;4.68;;;;;;;15.31;100.00;101384.84;10371716;28;20034;-80
2022/08/18 22:42:57;;;;;;;7.85;4.95;;;;;;;15.28;100.00;101388.16;10369478;28;20046;-80
2022/08/18 22:47:57;;;;;;;5.47;4.63;;;;;;;15.26;100.00;101396.75;10357269;28;20038;-81
2022/08/18 22:52:58;;;;;;;7.70;4.80;;;;;;;15.24;100.00;101389.81;10372381;28;20038;-79
2022/08/18 22:57:59;;;;;;;6.35;4.53;;;;;;;15.19;100.00;101392.56;10355925;28;20344;-80
2022/08/18 23:03:00;;;;;;;6.30;4.70;;;;;;;15.09;100.00;101388.66;10355445;28;20038;-79
2022/08/18 23:08:01;;;;;;;11.02;5.18;;;;;;;14.92;100.00;101371.41;10370877;28;20123;-80
2022/08/18 23:13:02;;;;;;;9.18;6.40;;;;;;;14.93;100.00;101373.91;10337951;28;20064;-80
2022/08/18 23:18:02;;;;;;;6.80;5.65;;;;;;;15.01;100.00;101380.03;10370002;28;20068;-81
2022/08/18 23:23:03;;;;;;;10.30;7.75;;;;;;;14.78;100.00;101365.53;10356031;28;20141;-79
2022/08/18 23:28:09;;;;;;;11.63;7.22;;;;;;;14.81;100.00;101375.25;10315042;28;20487;-80
2022/08/18 23:33:09;;;;;;;10.53;6.93;;;;;;;14.79;100.00;101360.81;10377585;28;20093;-80
2022/08/18 23:38:10;;;;;;;10.30;8.15;;;;;;;14.74;100.00;101361.63;10378119;28;20046;-80
2022/08/18 23:43:11;;;;;;;10.23;8.07;;;;;;;14.65;100.00;101369.63;10394924;28;20048;-80
2022/08/18 23:48:11;;;;;;;11.45;9.40;;;;;;;14.60;100.00;101369.59;10378152;28;20049;-80